LFKJ 211130Z AUTO 22006KT CAVOK 13/06 Q1020 NOSIG

ElémentsDécodage
LFKJ Station météo située sur l'aérodrome de AJACCIO Campo dell'Oro
211130Z émis le 21 du mois à 11h30 UTC
AUTO Bulletin édité par un automate
22006KT vent du 220°, 06 noeuds
CAVOK Ceiling And Visibility OK
- Visibilité de 10 Km ou plus
- Pas de nuage au-dessous de 1500m ou au-dessous de l'altitude minimale du secteur la plus élevée (si>1500m) et absence de CB
- pas de temps présent significatif
13/06 température 13°C, point de rosée 06°C
 soit une humidité relative de 62%
Q1020 la pression au niveau de la mer (QNH) est de 1020 hPa
NOSIG Pas de changement significatif prévu au cours des deux heures suivant l'heure de l'observation